createdAt,value
2018-12-07T00:02:25.065Z,100484.45
2018-12-07T00:04:50.803Z,100491.20
2018-12-07T00:07:17.076Z,100492.78
2018-12-07T00:09:42.843Z,100487.78
2018-12-07T00:12:08.673Z,100492.02
2018-12-07T00:14:35.700Z,100477.71
2018-12-07T00:17:01.725Z,100476.67
2018-12-07T00:19:28.392Z,100474.80
2018-12-07T00:21:54.436Z,100476.46
2018-12-07T00:24:20.739Z,100469.40
2018-12-07T00:26:47.120Z,100476.06
2018-12-07T00:29:13.043Z,100473.45
2018-12-07T00:31:38.783Z,100473.98
2018-12-07T00:34:04.627Z,100470.43
2018-12-07T00:36:30.463Z,100471.59
2018-12-07T00:38:56.188Z,100474.39
2018-12-07T00:41:21.963Z,100466.83
2018-12-07T00:43:47.747Z,100469.53
2018-12-07T00:46:13.471Z,100476.91
2018-12-07T00:48:39.204Z,100467.46
2018-12-07T00:51:05.019Z,100468.89
2018-12-07T00:53:30.876Z,100464.95
2018-12-07T00:55:56.623Z,100463.41
2018-12-07T00:58:22.351Z,100456.85
2018-12-07T01:00:48.251Z,100458.30
2018-12-07T01:03:13.975Z,100458.02
2018-12-07T01:05:39.716Z,100451.67
2018-12-07T01:08:05.452Z,100448.25
2018-12-07T01:10:31.193Z,100451.14
2018-12-07T01:12:56.922Z,100451.87
2018-12-07T01:15:22.855Z,100448.86
2018-12-07T01:17:48.683Z,100439.84
2018-12-07T01:20:14.418Z,100446.05
2018-12-07T01:22:40.243Z,100443.89
2018-12-07T01:25:06.086Z,100446.16
2018-12-07T01:27:31.810Z,100451.87
2018-12-07T01:29:57.552Z,100448.25
2018-12-07T01:32:23.294Z,100447.09
2018-12-07T01:34:49.020Z,100451.05
2018-12-07T01:37:14.750Z,100448.75
2018-12-07T01:39:40.459Z,100449.79
2018-12-07T01:42:06.318Z,100447.41
2018-12-07T01:44:32.048Z,100448.56
2018-12-07T01:46:57.775Z,100447.63
2018-12-07T01:49:23.595Z,100456.85
2018-12-07T01:51:49.318Z,100452.48
2018-12-07T01:54:15.039Z,100453.42
2018-12-07T01:56:40.779Z,100456.94
2018-12-07T01:59:06.499Z,100454.05
2018-12-07T02:01:39.172Z,100453.52
2018-12-07T02:04:04.909Z,100450.82
2018-12-07T02:06:30.647Z,100454.37
2018-12-07T02:08:56.367Z,100445.11
2018-12-07T02:11:22.104Z,100441.91
2018-12-07T02:13:47.833Z,100440.46
2018-12-07T02:16:13.560Z,100444.61
2018-12-07T02:18:39.402Z,100438.89
2018-12-07T02:21:05.231Z,100442.94
2018-12-07T02:23:31.060Z,100439.83
2018-12-07T02:25:56.777Z,100439.11
2018-12-07T02:28:22.517Z,100436.91
2018-12-07T02:30:48.239Z,100440.55
2018-12-07T02:33:13.965Z,100443.75
2018-12-07T02:35:39.795Z,100439.30
2018-12-07T02:38:05.546Z,100437.77
2018-12-07T02:40:31.476Z,100437.13
2018-12-07T02:42:57.213Z,100431.42
2018-12-07T02:45:23.039Z,100426.66
2018-12-07T02:47:48.771Z,100425.48
2018-12-07T02:50:14.600Z,100426.13
2018-12-07T02:52:40.332Z,100426.13
2018-12-07T02:55:06.174Z,100428.00
2018-12-07T02:57:32.015Z,100420.81
2018-12-07T02:59:57.838Z,100420.63
2018-12-07T03:02:23.581Z,100423.42
2018-12-07T03:04:49.333Z,100417.80
2018-12-07T03:07:15.276Z,100422.16
2018-12-07T03:09:40.995Z,100415.00
2018-12-07T03:12:06.719Z,100406.72
2018-12-07T03:14:32.544Z,100410.77
2018-12-07T03:16:58.268Z,100410.95
2018-12-07T03:19:24.097Z,100406.09
2018-12-07T03:21:49.823Z,100406.09
2018-12-07T03:24:15.555Z,100404.94
2018-12-07T03:26:41.387Z,100410.23
2018-12-07T03:29:07.207Z,100405.05
2018-12-07T03:31:33.031Z,100404.73
2018-12-07T03:33:58.752Z,100406.41
2018-12-07T03:36:24.584Z,100410.02
2018-12-07T03:38:50.412Z,100404.02
2018-12-07T03:41:16.335Z,100399.75
2018-12-07T03:43:42.161Z,100395.80
2018-12-07T03:46:07.873Z,100392.28
2018-12-07T03:48:33.604Z,100402.23
2018-12-07T03:50:59.320Z,100390.80
2018-12-07T03:53:25.204Z,100385.63
2018-12-07T03:55:50.927Z,100398.41
2018-12-07T03:58:16.663Z,100384.19
2018-12-07T04:00:42.391Z,100383.97
2018-12-07T04:03:08.128Z,100381.17
2018-12-07T04:05:33.952Z,100376.18
2018-12-07T04:07:59.672Z,100375.68
2018-12-07T04:10:25.417Z,100368.41
2018-12-07T04:12:51.137Z,100377.31
2018-12-07T04:15:17.197Z,100372.13
2018-12-07T04:17:42.915Z,100366.84
2018-12-07T04:20:08.761Z,100371.41
2018-12-07T04:22:34.591Z,100365.48
2018-12-07T04:25:00.350Z,100362.37
2018-12-07T04:27:26.077Z,100364.26
2018-12-07T04:29:55.848Z,100365.80
2018-12-07T04:32:21.570Z,100352.53
2018-12-07T04:34:48.307Z,100345.69
2018-12-07T04:37:14.040Z,100352.21
2018-12-07T04:39:39.777Z,100340.70
2018-12-07T04:42:05.491Z,100346.41
2018-12-07T04:44:38.319Z,100349.61
2018-12-07T04:47:04.079Z,100345.47
2018-12-07T04:49:29.919Z,100346.50
2018-12-07T04:51:55.645Z,100344.02
2018-12-07T04:54:21.473Z,100343.72
2018-12-07T04:56:47.204Z,100342.55
2018-12-07T04:59:12.946Z,100338.50
2018-12-07T05:01:38.795Z,100343.72
2018-12-07T05:04:04.521Z,100340.38
2018-12-07T05:06:30.256Z,100341.73
2018-12-07T05:08:56.071Z,100343.40
2018-12-07T05:11:21.797Z,100340.61
2018-12-07T05:13:47.511Z,100338.72
2018-12-07T05:16:13.247Z,100338.19
2018-12-07T05:18:38.980Z,100334.99
2018-12-07T05:21:04.734Z,100328.97
2018-12-07T05:23:30.455Z,100325.77
2018-12-07T05:25:56.201Z,100321.09
2018-12-07T05:28:22.139Z,100325.77
2018-12-07T05:30:47.989Z,100318.58
2018-12-07T05:33:13.727Z,100313.41
2018-12-07T05:35:39.488Z,100315.38
2018-12-07T05:38:05.208Z,100315.70
2018-12-07T05:40:31.037Z,100313.72
2018-12-07T05:42:56.767Z,100301.98
2018-12-07T05:45:22.495Z,100300.23
2018-12-07T05:47:48.235Z,100302.20
2018-12-07T05:50:13.953Z,100300.55
2018-12-07T05:52:39.687Z,100289.94
2018-12-07T05:55:05.611Z,100287.05
2018-12-07T05:57:31.340Z,100290.38
2018-12-07T05:59:57.179Z,100294.11
2018-12-07T06:02:23.024Z,100289.62
2018-12-07T06:04:48.742Z,100282.88
2018-12-07T06:07:14.467Z,100285.30
2018-12-07T06:09:40.286Z,100283.50
2018-12-07T06:12:06.016Z,100278.42
2018-12-07T06:14:31.836Z,100267.00
2018-12-07T06:16:57.563Z,100264.62
2018-12-07T06:19:23.400Z,100265.97
2018-12-07T06:21:49.139Z,100266.59
2018-12-07T06:24:14.876Z,100268.78
2018-12-07T06:26:40.611Z,100258.19
2018-12-07T06:29:06.338Z,100267.53
2018-12-07T06:31:32.167Z,100264.73
2018-12-07T06:33:57.900Z,100262.95
2018-12-07T06:36:23.721Z,100263.58
2018-12-07T06:38:49.467Z,100255.79
2018-12-07T06:41:15.422Z,100249.58
2018-12-07T06:43:41.152Z,100246.03
2018-12-07T06:46:06.979Z,100246.97
2018-12-07T06:48:32.816Z,100251.95
2018-12-07T06:50:58.647Z,100241.34
2018-12-07T06:53:24.562Z,100241.80
2018-12-07T06:55:50.283Z,100236.70
2018-12-07T06:58:16.119Z,100234.60
2018-12-07T07:00:41.877Z,100234.41
2018-12-07T07:03:07.628Z,100228.48
2018-12-07T07:05:33.346Z,100224.74
2018-12-07T07:07:59.067Z,100225.59
2018-12-07T07:10:24.817Z,100221.23
2018-12-07T07:12:50.548Z,100217.05
2018-12-07T07:15:16.275Z,100210.83
2018-12-07T07:17:42.004Z,100210.41
2018-12-07T07:20:07.847Z,100209.38
2018-12-07T07:22:33.575Z,100202.32
2018-12-07T07:24:59.419Z,100210.73
2018-12-07T07:27:25.258Z,100191.92
2018-12-07T07:29:51.095Z,100190.26
2018-12-07T07:32:16.928Z,100193.36
2018-12-07T07:34:42.761Z,100187.95
2018-12-07T07:37:08.578Z,100186.91
2018-12-07T07:39:34.417Z,100184.30
2018-12-07T07:42:00.167Z,100181.09
2018-12-07T07:44:25.903Z,100176.13
2018-12-07T07:46:51.944Z,100174.34
2018-12-07T07:49:17.688Z,100173.17
2018-12-07T07:51:43.509Z,100159.67
2018-12-07T07:54:09.251Z,100155.53
2018-12-07T07:56:35.385Z,100153.45
2018-12-07T07:59:01.120Z,100149.41
2018-12-07T08:01:26.971Z,100144.54
2018-12-07T08:03:52.815Z,100134.87
2018-12-07T08:06:18.651Z,100127.08
2018-12-07T08:08:44.477Z,100126.23
2018-12-07T08:11:10.224Z,100132.08
2018-12-07T08:13:36.043Z,100130.09
2018-12-07T08:16:01.994Z,100128.93
2018-12-07T08:18:27.724Z,100120.75
2018-12-07T08:20:53.463Z,100115.97
2018-12-07T08:23:19.847Z,100112.23
2018-12-07T08:25:45.701Z,100110.56
2018-12-07T08:28:11.431Z,100104.44
2018-12-07T08:30:37.259Z,100109.61
2018-12-07T08:33:03.094Z,100106.67
2018-12-07T08:35:28.833Z,100102.20
2018-12-07T08:37:54.576Z,100095.38
2018-12-07T08:40:20.324Z,100090.78
2018-12-07T08:42:46.039Z,100090.48
2018-12-07T08:45:11.910Z,100084.03
2018-12-07T08:47:37.751Z,100081.02
2018-12-07T08:50:04.791Z,100075.93
2018-12-07T08:52:30.632Z,100074.58
2018-12-07T08:54:56.353Z,100070.53
2018-12-07T08:57:22.079Z,100064.31
2018-12-07T08:59:47.902Z,100054.56
2018-12-07T09:02:13.647Z,100056.30
2018-12-07T09:04:39.375Z,100053.59
2018-12-07T09:07:05.121Z,100049.23
2018-12-07T09:09:30.874Z,100051.63
2018-12-07T09:11:56.603Z,100044.88
2018-12-07T09:14:22.338Z,100043.52
2018-12-07T09:16:48.179Z,100046.03
2018-12-07T09:19:13.903Z,100041.05
2018-12-07T09:21:39.732Z,100042.33
2018-12-07T09:24:05.455Z,100037.62
2018-12-07T09:26:31.198Z,100035.96
2018-12-07T09:28:56.915Z,100038.59
2018-12-07T09:31:22.737Z,100029.44
2018-12-07T09:33:48.471Z,100021.84
2018-12-07T09:36:14.311Z,100027.78
2018-12-07T09:38:40.048Z,100020.06
2018-12-07T09:41:05.783Z,100010.69
2018-12-07T09:43:31.528Z,100004.78
2018-12-07T09:45:57.254Z,99996.58
2018-12-07T09:48:22.994Z,99998.11
2018-12-07T09:50:48.715Z,99995.72
2018-12-07T09:53:14.443Z,99986.08
2018-12-07T09:55:40.264Z,99990.31
2018-12-07T09:58:05.995Z,99979.81
2018-12-07T10:00:31.723Z,99972.33
2018-12-07T10:02:57.461Z,99964.13
2018-12-07T10:05:23.195Z,99972.33
2018-12-07T10:07:48.924Z,99968.09
2018-12-07T10:10:14.656Z,99957.91
2018-12-07T10:12:40.395Z,99954.05
2018-12-07T10:15:06.253Z,99940.05
2018-12-07T10:17:32.088Z,99939.74
2018-12-07T10:19:57.827Z,99939.44
2018-12-07T10:22:23.555Z,99930.59
2018-12-07T10:24:49.388Z,99924.45
2018-12-07T10:27:15.133Z,99922.19
2018-12-07T10:29:40.967Z,99914.70
2018-12-07T10:32:06.705Z,99899.54
2018-12-07T10:34:32.472Z,99901.20
2018-12-07T10:36:58.211Z,99896.09
2018-12-07T10:39:23.939Z,99892.35
2018-12-07T10:41:56.936Z,99887.46
2018-12-07T10:44:23.189Z,99875.61
2018-12-07T10:46:49.584Z,99871.56
2018-12-07T10:49:16.512Z,99863.39
2018-12-07T10:51:42.944Z,99864.87
2018-12-07T10:54:09.661Z,99859.71
2018-12-07T10:56:36.257Z,99852.89
2018-12-07T10:59:02.914Z,99846.95
2018-12-07T11:01:34.934Z,99844.05
2018-12-07T11:04:07.765Z,99835.09
2018-12-07T11:06:40.185Z,99827.23
2018-12-07T11:09:12.341Z,99816.43
2018-12-07T11:11:40.227Z,99808.84
2018-12-07T11:14:11.394Z,99810.13
2018-12-07T11:16:43.588Z,99807.79
2018-12-07T11:19:16.057Z,99795.13
2018-12-07T11:21:48.522Z,99793.17
2018-12-07T11:24:20.860Z,99787.23
2018-12-07T11:29:56.488Z,99771.87
2018-12-07T11:32:24.247Z,99765.93
2018-12-07T11:34:51.897Z,99762.42
2018-12-07T11:37:17.643Z,99757.83
2018-12-07T11:39:43.504Z,99751.69
2018-12-07T11:42:09.332Z,99745.61
2018-12-07T11:44:36.586Z,99734.44
2018-12-07T11:47:02.538Z,99724.91
2018-12-07T11:49:30.283Z,99720.56
2018-12-07T11:51:56.332Z,99713.81
2018-12-07T11:54:22.179Z,99704.06
2018-12-07T11:56:47.903Z,99701.13
2018-12-07T11:59:13.734Z,99691.37
2018-12-07T12:01:44.727Z,99683.50
2018-12-07T12:04:07.235Z,99679.75
2018-12-07T12:06:33.056Z,99682.66
2018-12-07T12:08:58.895Z,99674.66
2018-12-07T12:11:24.830Z,99669.26
2018-12-07T12:13:50.572Z,99666.46
2018-12-07T12:16:16.430Z,99657.91
2018-12-07T12:18:42.224Z,99656.05
2018-12-07T12:21:07.951Z,99653.05
2018-12-07T12:23:33.755Z,99657.31
2018-12-07T12:25:59.619Z,99641.11
2018-12-07T12:28:25.347Z,99636.55
2018-12-07T12:30:51.590Z,99634.90
2018-12-07T12:33:17.336Z,99634.06
2018-12-07T12:35:43.164Z,99630.01
2018-12-07T12:38:08.907Z,99627.40
2018-12-07T12:40:34.736Z,99627.61
2018-12-07T12:43:07.419Z,99616.14
2018-12-07T12:45:33.157Z,99618.84
2018-12-07T12:47:59.019Z,99614.50
2018-12-07T12:50:30.939Z,99606.39
2018-12-07T12:52:56.791Z,99599.05
2018-12-07T12:55:22.618Z,99594.45
2018-12-07T12:57:48.343Z,99592.59
2018-12-07T13:00:14.183Z,99589.80
2018-12-07T13:02:39.923Z,99587.49
2018-12-07T13:05:05.767Z,99582.55
2018-12-07T13:07:31.516Z,99575.20
2018-12-07T13:09:57.251Z,99569.05
2018-12-07T13:12:22.990Z,99560.59
2018-12-07T13:14:48.841Z,99547.08
2018-12-07T13:17:14.551Z,99551.34
2018-12-07T13:19:40.283Z,99544.38
2018-12-07T13:22:06.015Z,99540.55
2018-12-07T13:24:31.770Z,99527.34
2018-12-07T13:26:57.592Z,99522.09
2018-12-07T13:29:23.330Z,99520.30
2018-12-07T13:31:49.069Z,99520.75
2018-12-07T13:34:14.794Z,99511.89
2018-12-07T13:36:40.506Z,99502.23
2018-12-07T13:39:06.667Z,99511.44
2018-12-07T13:41:32.408Z,99498.09
2018-12-07T13:43:58.277Z,99492.70
2018-12-07T13:46:24.327Z,99492.03
2018-12-07T13:48:50.334Z,99484.84
2018-12-07T13:51:16.202Z,99480.25
2018-12-07T13:53:42.112Z,99486.55
2018-12-07T13:56:08.014Z,99473.05
2018-12-07T13:58:33.939Z,99467.05
2018-12-07T14:00:59.837Z,99456.55
2018-12-07T14:03:25.835Z,99452.20
2018-12-07T14:05:51.838Z,99445.16
2018-12-07T14:08:18.832Z,99446.23
2018-12-07T14:10:44.828Z,99440.30
2018-12-07T14:13:10.793Z,99430.30
2018-12-07T14:15:36.577Z,99431.38
2018-12-07T14:18:02.433Z,99419.80
2018-12-07T14:20:28.403Z,99419.80
2018-12-07T14:22:54.211Z,99411.70
2018-12-07T14:25:20.075Z,99404.90
2018-12-07T14:27:46.032Z,99409.84
2018-12-07T14:30:12.136Z,99408.78
2018-12-07T14:32:38.237Z,99404.44
2018-12-07T14:35:04.490Z,99401.14
2018-12-07T14:37:30.303Z,99401.44
2018-12-07T14:39:56.315Z,99403.04
2018-12-07T14:42:22.183Z,99397.64
2018-12-07T14:44:48.002Z,99387.59
2018-12-07T14:47:13.936Z,99377.77
2018-12-07T14:49:39.788Z,99377.02
2018-12-07T14:52:05.630Z,99380.84
2018-12-07T14:54:31.547Z,99379.20
2018-12-07T14:56:57.432Z,99369.75
2018-12-07T14:59:23.268Z,99370.27
2018-12-07T15:01:49.052Z,99364.95
2018-12-07T15:04:15.312Z,99358.79
2018-12-07T15:06:41.403Z,99359.95
2018-12-07T15:09:07.577Z,99349.97
2018-12-07T15:11:33.496Z,99346.64
2018-12-07T15:13:59.504Z,99343.94
2018-12-07T15:16:25.344Z,99343.84
2018-12-07T15:18:51.374Z,99340.09
2018-12-07T15:21:17.460Z,99330.70
2018-12-07T15:23:43.356Z,99317.83
2018-12-07T15:26:09.189Z,99315.72
2018-12-07T15:28:35.142Z,99314.07
2018-12-07T15:31:01.033Z,99308.67
2018-12-07T15:33:27.126Z,99305.68
2018-12-07T15:35:53.088Z,99296.72
2018-12-07T15:38:19.048Z,99294.66
2018-12-07T15:40:44.894Z,99276.23
2018-12-07T15:43:10.796Z,99280.53
2018-12-07T15:45:36.713Z,99274.59
2018-12-07T15:48:02.628Z,99277.23
2018-12-07T15:50:28.718Z,99265.69
2018-12-07T15:52:54.794Z,99261.05
2018-12-07T15:55:20.747Z,99265.14
2018-12-07T15:57:46.643Z,99263.28
2018-12-07T16:00:12.488Z,99255.45
2018-12-07T16:02:38.356Z,99251.48
2018-12-07T16:05:04.983Z,99251.19
2018-12-07T16:07:31.103Z,99249.08
2018-12-07T16:09:57.086Z,99249.84
2018-12-07T16:12:22.963Z,99236.22
2018-12-07T16:14:48.950Z,99240.86
2018-12-07T16:17:15.019Z,99226.77
2018-12-07T16:19:40.963Z,99231.66
2018-12-07T16:22:07.314Z,99220.03
2018-12-07T16:24:33.338Z,99216.18
2018-12-07T16:27:06.331Z,99214.83
2018-12-07T16:29:32.122Z,99206.66
2018-12-07T16:31:58.125Z,99201.05
2018-12-07T16:34:24.146Z,99194.47
2018-12-07T16:36:49.922Z,99192.06
2018-12-07T16:39:15.897Z,99185.07
2018-12-07T16:41:48.971Z,99170.36
2018-12-07T16:44:14.842Z,99165.80
2018-12-07T16:46:40.909Z,99163.91
2018-12-07T16:49:07.055Z,99170.95
2018-12-07T16:51:32.870Z,99169.01
2018-12-07T16:53:58.753Z,99158.63
2018-12-07T16:56:24.889Z,99163.45
2018-12-07T16:58:50.870Z,99157.83
2018-12-07T17:01:16.870Z,99154.13
2018-12-07T17:03:43.044Z,99143.88
2018-12-07T17:06:09.196Z,99134.14
2018-12-07T17:08:34.971Z,99129.80
2018-12-07T17:11:00.711Z,99123.05
2018-12-07T17:13:26.609Z,99106.87
2018-12-07T17:15:52.513Z,99110.66
2018-12-07T17:18:18.343Z,99101.69
2018-12-07T17:20:44.241Z,99108.21
2018-12-07T17:23:10.204Z,99086.34
2018-12-07T17:25:36.028Z,99083.39
2018-12-07T17:28:02.145Z,99078.25
2018-12-07T17:30:28.097Z,99067.45
2018-12-07T17:32:54.044Z,99064.69
2018-12-07T17:35:20.039Z,99057.94
2018-12-07T17:37:45.926Z,99052.50
2018-12-07T17:40:12.011Z,99053.34
2018-12-07T17:42:38.077Z,99051.45
2018-12-07T17:45:04.649Z,99039.05
2018-12-07T17:47:30.702Z,99049.52
2018-12-07T17:49:56.677Z,99031.17
2018-12-07T17:52:22.459Z,99030.30
2018-12-07T17:54:48.511Z,99030.00
2018-12-07T17:57:14.382Z,99020.61
2018-12-07T17:59:40.210Z,99013.48
2018-12-07T18:02:06.148Z,99013.02
2018-12-07T18:04:31.887Z,99008.97
2018-12-07T18:06:57.763Z,98996.83
2018-12-07T18:09:23.807Z,99003.50
2018-12-07T18:11:49.695Z,98999.12
2018-12-07T18:14:15.865Z,98996.97
2018-12-07T18:16:41.904Z,98975.69
2018-12-07T18:19:07.840Z,98985.97
2018-12-07T18:21:34.146Z,98979.77
2018-12-07T18:23:59.951Z,98973.21
2018-12-07T18:26:25.827Z,98969.93
2018-12-07T18:28:51.822Z,98963.15
2018-12-07T18:31:17.875Z,98968.29
2018-12-07T18:33:43.750Z,98955.64
2018-12-07T18:36:09.833Z,98957.13
2018-12-07T18:38:35.664Z,98950.09
2018-12-07T18:41:01.542Z,98939.60
2018-12-07T18:43:27.546Z,98934.25
2018-12-07T18:45:53.366Z,98932.03
2018-12-07T18:48:19.337Z,98926.59
2018-12-07T18:50:45.247Z,98925.83
2018-12-07T18:53:11.000Z,98921.78
2018-12-07T18:55:37.050Z,98911.29
2018-12-07T18:58:03.070Z,98915.59
2018-12-07T19:00:29.022Z,98912.89
2018-12-07T19:02:54.934Z,98911.87
2018-12-07T19:05:21.030Z,98909.76
2018-12-07T19:07:47.058Z,98908.92
2018-12-07T19:10:12.924Z,98900.25
2018-12-07T19:12:38.696Z,98896.50
2018-12-07T19:15:05.477Z,98896.17
2018-12-07T19:17:31.520Z,98889.68
2018-12-07T19:19:57.493Z,98877.26
2018-12-07T19:22:23.874Z,98878.31
2018-12-07T19:24:50.251Z,98881.23
2018-12-07T19:27:16.570Z,98875.84
2018-12-07T19:29:45.559Z,98875.33
2018-12-07T19:32:12.012Z,98874.56
2018-12-07T19:34:38.275Z,98873.69
2018-12-07T19:37:04.690Z,98859.63
2018-12-07T19:39:31.873Z,98865.27
2018-12-07T19:41:58.018Z,98857.19
2018-12-07T19:44:24.127Z,98854.78
2018-12-07T19:46:55.968Z,98846.88
2018-12-07T19:49:23.269Z,98836.09
2018-12-07T19:51:52.427Z,98831.80
2018-12-07T19:54:18.321Z,98821.56
2018-12-07T19:56:44.855Z,98821.23
2018-12-07T19:59:11.196Z,98811.54
2018-12-07T20:01:37.052Z,98816.35
2018-12-07T20:04:11.482Z,98816.83
2018-12-07T20:06:40.226Z,98813.08
2018-12-07T20:09:07.873Z,98809.77
2018-12-07T20:11:35.270Z,98817.41
2018-12-07T20:14:03.710Z,98842.17
2018-12-07T20:16:30.246Z,98853.51
2018-12-07T20:18:57.161Z,98872.19
2018-12-07T20:21:29.138Z,98879.79
2018-12-07T20:24:00.028Z,98894.25
2018-12-07T20:26:28.114Z,98900.09
2018-12-07T20:28:55.430Z,98918.92
2018-12-07T20:31:29.075Z,98935.86
2018-12-07T20:33:56.579Z,98950.28
2018-12-07T20:36:23.437Z,98958.46
2018-12-07T20:38:49.572Z,98962.28
2018-12-07T20:41:16.456Z,98981.38
2018-12-07T20:43:44.418Z,98974.53
2018-12-07T20:46:10.764Z,98992.14
2018-12-07T20:48:37.397Z,98999.30
2018-12-07T20:51:06.235Z,99005.89
2018-12-07T20:53:32.935Z,99009.02
2018-12-07T20:55:59.301Z,99009.45
2018-12-07T20:58:28.972Z,98999.98
2018-12-07T21:00:59.194Z,99001.40
2018-12-07T21:03:27.682Z,99013.25
2018-12-07T21:09:22.860Z,99036.51
2018-12-07T21:11:53.677Z,99039.20
2018-12-07T21:14:24.531Z,99050.09
2018-12-07T21:17:06.109Z,99053.83
2018-12-07T21:19:36.161Z,99053.78
2018-12-07T21:22:06.881Z,99064.02
2018-12-07T21:24:33.714Z,99062.66
2018-12-07T21:27:00.003Z,99065.77
2018-12-07T21:29:28.831Z,99073.44
2018-12-07T21:31:58.085Z,99078.09
2018-12-07T21:37:26.137Z,99092.48
2018-12-07T21:39:55.467Z,99094.27
2018-12-07T21:42:21.362Z,99097.34
2018-12-07T21:44:47.908Z,99103.44
2018-12-07T21:47:14.423Z,99113.19
2018-12-07T21:49:40.694Z,99100.30
2018-12-07T21:52:12.383Z,99109.02
2018-12-07T21:54:39.933Z,99106.86
2018-12-07T21:57:07.081Z,99122.73
2018-12-07T21:59:34.877Z,99126.06
2018-12-07T22:02:06.119Z,99137.41
2018-12-07T22:04:33.418Z,99132.55
2018-12-07T22:07:04.065Z,99137.19
2018-12-07T22:09:32.422Z,99148.91
2018-12-07T22:12:00.147Z,99142.62
2018-12-07T22:14:29.360Z,99146.53
2018-12-07T22:16:56.954Z,99148.13
2018-12-07T22:19:25.495Z,99151.61
2018-12-07T22:21:51.781Z,99152.17
2018-12-07T22:24:17.744Z,99180.73
2018-12-07T22:26:44.587Z,99182.48
2018-12-07T22:29:17.932Z,99182.18
2018-12-07T22:31:44.499Z,99202.10
2018-12-07T22:34:12.627Z,99220.37
2018-12-07T22:36:39.379Z,99218.30
2018-12-07T22:39:06.072Z,99200.37
2018-12-07T22:41:33.046Z,99207.72
2018-12-07T22:44:01.648Z,99203.91
2018-12-07T22:46:29.876Z,99220.71
2018-12-07T22:48:56.104Z,99233.72
2018-12-07T22:51:24.458Z,99228.05
2018-12-07T22:53:52.253Z,99231.84
2018-12-07T22:56:19.378Z,99227.84
2018-12-07T22:58:45.108Z,99228.38
2018-12-07T23:01:10.982Z,99221.25
2018-12-07T23:03:36.831Z,99223.94
2018-12-07T23:06:02.765Z,99229.39
2018-12-07T23:08:35.443Z,99235.79
2018-12-07T23:11:01.304Z,99223.95
2018-12-07T23:13:27.742Z,99221.27
2018-12-07T23:15:54.964Z,99213.95
2018-12-07T23:18:22.893Z,99213.94
2018-12-07T23:20:49.251Z,99225.07
2018-12-07T23:23:16.558Z,99215.07
2018-12-07T23:25:43.061Z,99218.59
2018-12-07T23:28:08.805Z,99228.77
2018-12-07T23:30:34.535Z,99234.76
2018-12-07T23:33:00.690Z,99241.95
2018-12-07T23:35:26.547Z,99248.16
2018-12-07T23:37:52.643Z,99250.62
2018-12-07T23:40:18.487Z,99256.28
2018-12-07T23:42:44.320Z,99255.47
2018-12-07T23:45:10.309Z,99251.55
2018-12-07T23:47:37.420Z,99251.77
2018-12-07T23:50:05.320Z,99258.88
2018-12-07T23:52:31.052Z,99260.84
2018-12-07T23:54:56.769Z,99268.75
2018-12-07T23:57:24.348Z,99265.66
2018-12-07T23:59:50.162Z,99274.55
